Kalamazoo Battle Creek International Airport
KAZO : now visible

Airfield :











YOU CAN JOIN US ON...

 
LOGIN :

Register | Disclaimer

   EN    FR    IT 

 









Legend :    VFR   Marginal VFR   IFR   Intensive IFR   Very Intensive IFR
Visi :
Ceiling :
>= 8 km
>= 3000ft
5 to 8 km
1000 to 3000 ft
1500m to 5 km
500 to 1000 ft
800 to 1500m
200 to 500 ft
< 800m
< 200 ft
Symbols :   Thunderstorms  Fog  Heavy snow  Heavy precipitations  Wind > 20 kt






- Airport Elevation : 874 ft
- IATA code : AZO


KAZO - Kalamazoo Battle Creek International

CURRENT METAR :
  • 040453Z AUTO 00000KT 9SM CLR 19/14 A3015 RMK AO2 SLP203 T01890139 403220172

EXPIRED METARs :
  • 040353Z AUTO 00000KT 10SM CLR 19/13 A3015 RMK AO2 SLP204 T01940133
  • 040253Z AUTO 00000KT 10SM CLR 22/13 A3015 RMK AO2 SLP205 T02220128 53009

TAF KAZO
Valid from the 04 at 06:00 until the 05 at 06:00 UTC


040525Z 0406/0506 13003KT P6SM FEW120
FM041400 19009G16KT P6SM SCT200
FM050000 18010KT P6SM -SHRA BKN080
FM050500 18010KT 4SM SHRA VCTS BKN050CB
KZAU FIR / North America



MET'MAP, your aeronautical weather chart ! - Copyright ORBIFLY December 2007 - Disclaimer

ORBIFLY MET'MAP TEAM :

Programming & Development : Alexandra Zaïnal
Original concept : Baudouin d'Aumeries
Technical & hardware support : Manuel Goepfert
Assistance : Marc-Olivier Méhu




SOURCES & CREDITS :

   NOAA       Earth
Advisory